createdAt,value
2023-03-06T00:00:50.165Z,98.35
2023-03-06T00:01:51.796Z,99.31
2023-03-06T00:02:53.555Z,99.01
2023-03-06T00:03:55.200Z,99.37
2023-03-06T00:04:57.095Z,99.06
2023-03-06T00:05:58.880Z,99.41
2023-03-06T00:07:00.462Z,99.67
2023-03-06T00:08:01.990Z,99.16
2023-03-06T00:09:03.570Z,98.93
2023-03-06T00:10:05.610Z,98.62
2023-03-06T00:11:07.035Z,98.66
2023-03-06T00:12:08.839Z,99.33
2023-03-06T00:13:13.527Z,98.88
2023-03-06T00:14:15.951Z,99.02
2023-03-06T00:15:17.454Z,99.40
2023-03-06T00:16:18.943Z,99.57
2023-03-06T00:17:20.388Z,99.63
2023-03-06T00:18:21.800Z,99.61
2023-03-06T00:19:23.592Z,99.37
2023-03-06T00:20:26.253Z,99.91
2023-03-06T00:21:27.773Z,99.89
2023-03-06T00:22:29.190Z,99.43
2023-03-06T00:23:30.633Z,99.71
2023-03-06T00:24:32.089Z,99.82
2023-03-06T00:25:36.729Z,100.00
2023-03-06T00:26:39.440Z,99.92
2023-03-06T00:27:41.281Z,99.87
2023-03-06T00:28:42.713Z,99.39
2023-03-06T00:29:44.768Z,99.39
2023-03-06T00:30:47.405Z,99.41
2023-03-06T00:31:48.961Z,99.95
2023-03-06T00:32:52.281Z,99.59
2023-03-06T00:33:53.716Z,99.87
2023-03-06T00:34:55.799Z,99.87
2023-03-06T00:35:57.193Z,100.00
2023-03-06T00:36:58.637Z,100.00
2023-03-06T00:38:00.166Z,99.93
2023-03-06T00:39:01.666Z,99.50
2023-03-06T00:40:05.992Z,100.00
2023-03-06T00:41:11.947Z,99.69
2023-03-06T00:42:13.409Z,99.91
2023-03-06T00:43:14.863Z,99.52
2023-03-06T00:44:16.335Z,100.00
2023-03-06T00:45:17.813Z,99.67
2023-03-06T00:46:19.259Z,99.95
2023-03-06T00:47:20.804Z,99.80
2023-03-06T00:48:22.249Z,99.85
2023-03-06T00:49:23.678Z,100.00
2023-03-06T00:50:25.236Z,100.00
2023-03-06T00:51:26.724Z,100.00
2023-03-06T00:52:28.141Z,100.00
2023-03-06T00:53:29.596Z,100.00
2023-03-06T00:54:31.446Z,100.00
2023-03-06T00:55:33.409Z,99.95
2023-03-06T00:56:34.892Z,99.64
2023-03-06T00:57:36.438Z,99.77
2023-03-06T00:58:37.893Z,99.68
2023-03-06T00:59:39.426Z,99.87
2023-03-06T01:00:40.869Z,99.71
2023-03-06T01:01:42.372Z,100.00
2023-03-06T01:02:43.799Z,100.00
2023-03-06T01:03:45.295Z,99.94
2023-03-06T01:04:46.829Z,99.87
2023-03-06T01:05:48.279Z,99.89
2023-03-06T01:06:49.831Z,100.00
2023-03-06T01:07:51.260Z,100.00
2023-03-06T01:08:52.754Z,100.00
2023-03-06T01:09:54.333Z,100.00
2023-03-06T01:10:55.802Z,100.00
2023-03-06T01:11:57.229Z,100.00
2023-03-06T01:12:58.674Z,100.00
2023-03-06T01:14:00.135Z,100.00
2023-03-06T01:15:01.971Z,100.00
2023-03-06T01:16:12.910Z,100.00
2023-03-06T01:17:15.831Z,100.00
2023-03-06T01:18:17.276Z,100.00
2023-03-06T01:19:18.747Z,100.00
2023-03-06T01:20:20.345Z,100.00
2023-03-06T01:21:21.768Z,100.00
2023-03-06T01:22:23.174Z,100.00
2023-03-06T01:23:24.639Z,99.97
2023-03-06T01:24:26.067Z,99.97
2023-03-06T01:25:27.553Z,99.88
2023-03-06T01:26:29.065Z,99.92
2023-03-06T01:27:30.679Z,99.87
2023-03-06T01:28:34.053Z,99.66
2023-03-06T01:29:35.512Z,99.72
2023-03-06T01:30:36.948Z,100.00
2023-03-06T01:31:38.392Z,99.93
2023-03-06T01:32:40.054Z,100.00
2023-03-06T01:33:41.619Z,100.00
2023-03-06T01:34:43.080Z,100.00
2023-03-06T01:35:44.642Z,100.00
2023-03-06T01:36:46.128Z,100.00
2023-03-06T01:37:47.557Z,99.64
2023-03-06T01:38:48.983Z,99.91
2023-03-06T01:39:50.414Z,99.49
2023-03-06T01:40:51.889Z,99.63
2023-03-06T01:41:53.325Z,99.63
2023-03-06T01:42:54.808Z,100.00
2023-03-06T01:43:56.289Z,99.97
2023-03-06T01:45:08.178Z,99.70
2023-03-06T01:46:42.221Z,99.83
2023-03-06T01:47:44.761Z,99.67
2023-03-06T01:48:47.997Z,100.00
2023-03-06T01:49:49.483Z,100.00
2023-03-06T01:50:53.021Z,100.00
2023-03-06T01:52:06.423Z,100.00
2023-03-06T01:53:08.320Z,99.79
2023-03-06T01:54:17.711Z,99.98
2023-03-06T01:55:22.653Z,99.71
2023-03-06T01:56:25.322Z,99.81
2023-03-06T01:57:33.365Z,99.63
2023-03-06T01:58:35.110Z,100.00
2023-03-06T01:59:39.204Z,99.58
2023-03-06T02:00:40.659Z,100.00
2023-03-06T02:01:44.123Z,99.57
2023-03-06T02:02:51.204Z,99.90
2023-03-06T02:03:53.158Z,99.75
2023-03-06T02:04:54.663Z,100.00
2023-03-06T02:05:56.441Z,100.00
2023-03-06T02:07:00.414Z,100.00
2023-03-06T02:08:03.934Z,100.00
2023-03-06T02:09:06.613Z,99.92
2023-03-06T02:10:08.682Z,99.66
2023-03-06T02:11:22.702Z,100.00
2023-03-06T02:12:24.909Z,100.00
2023-03-06T02:13:26.273Z,99.61
2023-03-06T02:14:29.998Z,99.92
2023-03-06T02:15:31.567Z,99.44
2023-03-06T02:16:34.049Z,99.09
2023-03-06T02:17:36.549Z,99.43
2023-03-06T02:18:39.145Z,98.79
2023-03-06T02:19:53.248Z,99.26
2023-03-06T02:21:02.616Z,99.23
2023-03-06T02:22:04.153Z,99.08
2023-03-06T02:23:11.988Z,99.51
2023-03-06T02:24:19.858Z,98.71
2023-03-06T02:25:50.700Z,98.70
2023-03-06T02:26:53.326Z,99.18
2023-03-06T02:27:54.846Z,98.64
2023-03-06T02:28:58.413Z,98.64
2023-03-06T02:29:59.880Z,98.84
2023-03-06T02:31:01.479Z,98.50
2023-03-06T02:32:03.104Z,98.91
2023-03-06T02:33:05.659Z,98.60
2023-03-06T02:34:14.828Z,98.64
2023-03-06T02:35:22.927Z,98.72
2023-03-06T02:36:24.326Z,98.87
2023-03-06T02:37:28.466Z,98.15
2023-03-06T02:38:37.218Z,98.75
2023-03-06T02:39:42.900Z,98.18
2023-03-06T02:40:48.416Z,98.30
2023-03-06T02:41:49.852Z,98.51
2023-03-06T02:42:57.415Z,98.58
2023-03-06T02:43:58.821Z,98.30
2023-03-06T02:45:03.262Z,98.34
2023-03-06T02:46:05.511Z,97.73
2023-03-06T02:47:07.757Z,97.77
2023-03-06T02:48:09.320Z,98.61
2023-03-06T02:49:10.747Z,97.74
2023-03-06T02:50:12.201Z,97.87
2023-03-06T02:51:13.865Z,97.72
2023-03-06T02:52:15.264Z,97.56
2023-03-06T02:53:18.920Z,97.83
2023-03-06T02:54:20.429Z,97.78
2023-03-06T02:55:21.839Z,98.08
2023-03-06T02:56:23.253Z,97.95
2023-03-06T02:57:24.675Z,97.25
2023-03-06T02:58:26.122Z,97.92
2023-03-06T02:59:27.616Z,97.99
2023-03-06T03:00:30.077Z,97.92
2023-03-06T03:01:31.672Z,97.72
2023-03-06T03:02:33.090Z,98.37
2023-03-06T03:03:34.657Z,97.45
2023-03-06T03:04:36.160Z,97.17
2023-03-06T03:05:37.662Z,97.22
2023-03-06T03:06:39.062Z,97.43
2023-03-06T03:07:40.852Z,96.79
2023-03-06T03:08:42.272Z,96.36
2023-03-06T03:09:43.770Z,96.87
2023-03-06T03:10:45.206Z,96.72
2023-03-06T03:11:46.661Z,96.30
2023-03-06T03:12:48.179Z,96.92
2023-03-06T03:13:49.871Z,96.62
2023-03-06T03:14:51.325Z,97.07
2023-03-06T03:16:11.180Z,96.70
2023-03-06T03:17:12.609Z,96.54
2023-03-06T03:18:14.120Z,96.03
2023-03-06T03:19:15.595Z,95.67
2023-03-06T03:20:19.797Z,95.89
2023-03-06T03:21:21.262Z,96.70
2023-03-06T03:22:22.815Z,96.25
2023-03-06T03:23:25.240Z,96.32
2023-03-06T03:24:26.954Z,95.91
2023-03-06T03:25:28.388Z,95.56
2023-03-06T03:26:29.812Z,95.30
2023-03-06T03:27:31.227Z,95.95
2023-03-06T03:28:32.699Z,95.91
2023-03-06T03:29:34.410Z,95.58
2023-03-06T03:30:35.851Z,95.33
2023-03-06T03:31:37.350Z,95.37
2023-03-06T03:32:38.859Z,95.63
2023-03-06T03:33:41.120Z,95.39
2023-03-06T03:34:42.563Z,95.89
2023-03-06T03:35:44.062Z,95.60
2023-03-06T03:36:46.271Z,95.14
2023-03-06T03:37:47.599Z,96.24
2023-03-06T03:38:49.102Z,95.89
2023-03-06T03:39:50.532Z,95.41
2023-03-06T03:40:51.967Z,96.16
2023-03-06T03:41:53.416Z,95.69
2023-03-06T03:42:54.857Z,95.48
2023-03-06T03:43:56.286Z,96.13
2023-03-06T03:44:57.688Z,95.72
2023-03-06T03:45:59.092Z,96.30
2023-03-06T03:47:00.578Z,95.98
2023-03-06T03:48:02.006Z,96.01
2023-03-06T03:49:03.872Z,94.83
2023-03-06T03:50:05.790Z,95.83
2023-03-06T03:51:10.023Z,95.21
2023-03-06T03:52:11.463Z,94.76
2023-03-06T03:53:12.876Z,95.12
2023-03-06T03:54:14.490Z,95.77
2023-03-06T03:55:16.062Z,96.01
2023-03-06T03:56:17.718Z,95.65
2023-03-06T03:57:19.140Z,95.45
2023-03-06T03:58:20.560Z,95.38
2023-03-06T03:59:22.034Z,95.26
2023-03-06T04:00:23.551Z,95.79
2023-03-06T04:01:24.963Z,95.22
2023-03-06T04:02:26.426Z,95.37
2023-03-06T04:03:27.951Z,95.70
2023-03-06T04:04:29.406Z,95.27
2023-03-06T04:05:31.135Z,95.52
2023-03-06T04:06:32.678Z,95.44
2023-03-06T04:07:34.117Z,96.20
2023-03-06T04:08:35.933Z,95.54
2023-03-06T04:09:37.398Z,95.25
2023-03-06T04:10:39.448Z,95.89
2023-03-06T04:11:40.845Z,95.56
2023-03-06T04:12:42.243Z,95.01
2023-03-06T04:13:43.718Z,95.60
2023-03-06T04:14:45.158Z,95.82
2023-03-06T04:15:48.068Z,95.71
2023-03-06T04:16:49.620Z,94.70
2023-03-06T04:17:51.328Z,95.98
2023-03-06T04:18:52.852Z,95.46
2023-03-06T04:19:54.298Z,95.13
2023-03-06T04:20:55.742Z,95.07
2023-03-06T04:21:57.243Z,95.10
2023-03-06T04:22:58.721Z,95.08
2023-03-06T04:24:00.168Z,94.95
2023-03-06T04:25:01.689Z,94.52
2023-03-06T04:26:03.902Z,94.38
2023-03-06T04:27:05.595Z,94.65
2023-03-06T04:28:07.480Z,94.34
2023-03-06T04:29:08.953Z,94.17
2023-03-06T04:30:11.084Z,94.71
2023-03-06T04:31:13.043Z,94.58
2023-03-06T04:32:15.447Z,94.69
2023-03-06T04:33:17.239Z,95.51
2023-03-06T04:34:18.674Z,95.82
2023-03-06T04:35:20.231Z,95.30
2023-03-06T04:36:26.844Z,95.39
2023-03-06T04:37:28.312Z,95.50
2023-03-06T04:38:29.786Z,95.58
2023-03-06T04:39:31.471Z,96.06
2023-03-06T04:40:34.912Z,95.68
2023-03-06T04:41:36.566Z,95.95
2023-03-06T04:42:38.183Z,96.38
2023-03-06T04:43:39.625Z,96.67
2023-03-06T04:44:41.133Z,96.45
2023-03-06T04:45:42.567Z,96.24
2023-03-06T04:46:44.002Z,97.14
2023-03-06T04:47:45.439Z,96.96
2023-03-06T04:48:47.175Z,95.28
2023-03-06T04:49:48.592Z,95.12
2023-03-06T04:50:50.010Z,95.75
2023-03-06T04:51:51.407Z,95.48
2023-03-06T04:52:52.814Z,96.12
2023-03-06T04:53:54.202Z,95.92
2023-03-06T04:54:55.729Z,96.17
2023-03-06T04:55:57.178Z,95.81
2023-03-06T04:56:58.760Z,94.57
2023-03-06T04:58:00.336Z,95.14
2023-03-06T04:59:02.537Z,95.38
2023-03-06T05:00:10.231Z,95.76
2023-03-06T05:01:12.406Z,95.54
2023-03-06T05:02:13.925Z,95.53
2023-03-06T05:03:15.423Z,95.68
2023-03-06T05:04:16.908Z,95.22
2023-03-06T05:05:18.881Z,94.09
2023-03-06T05:06:20.358Z,94.81
2023-03-06T05:07:21.801Z,94.89
2023-03-06T05:08:23.841Z,95.05
2023-03-06T05:09:25.318Z,94.71
2023-03-06T05:10:26.878Z,94.46
2023-03-06T05:11:28.341Z,94.84
2023-03-06T05:12:29.757Z,95.27
2023-03-06T05:13:31.162Z,94.94
2023-03-06T05:14:33.952Z,95.42
2023-03-06T05:15:35.373Z,94.62
2023-03-06T05:16:36.882Z,94.36
2023-03-06T05:17:38.472Z,95.02
2023-03-06T05:18:39.920Z,94.55
2023-03-06T05:19:41.333Z,93.99
2023-03-06T05:20:43.164Z,94.57
2023-03-06T05:21:44.572Z,95.72
2023-03-06T05:22:46.021Z,94.64
2023-03-06T05:23:47.546Z,95.13
2023-03-06T05:24:48.982Z,95.09
2023-03-06T05:25:50.410Z,95.12
2023-03-06T05:26:51.855Z,96.13
2023-03-06T05:27:53.235Z,96.74
2023-03-06T05:28:55.324Z,95.43
2023-03-06T05:29:56.756Z,95.79
2023-03-06T05:30:58.152Z,95.32
2023-03-06T05:31:59.576Z,95.65
2023-03-06T05:33:01.111Z,95.16
2023-03-06T05:34:02.563Z,95.27
2023-03-06T05:35:05.595Z,95.05
2023-03-06T05:36:09.049Z,96.01
2023-03-06T05:37:10.468Z,95.86
2023-03-06T05:38:12.122Z,95.71
2023-03-06T05:39:13.614Z,95.83
2023-03-06T05:40:16.181Z,95.92
2023-03-06T05:41:17.660Z,95.02
2023-03-06T05:42:19.173Z,95.50
2023-03-06T05:43:20.801Z,95.50
2023-03-06T05:44:23.850Z,95.51
2023-03-06T05:45:25.608Z,95.77
2023-03-06T05:46:27.205Z,95.40
2023-03-06T05:47:28.616Z,96.48
2023-03-06T05:48:30.184Z,96.65
2023-03-06T05:49:33.659Z,96.76
2023-03-06T05:50:35.118Z,96.42
2023-03-06T05:51:36.771Z,96.83
2023-03-06T05:52:39.579Z,96.79
2023-03-06T05:53:40.985Z,97.60
2023-03-06T05:54:42.975Z,96.84
2023-03-06T05:55:44.437Z,96.98
2023-03-06T05:56:45.831Z,97.25
2023-03-06T05:57:48.220Z,97.42
2023-03-06T05:58:50.879Z,96.62
2023-03-06T05:59:52.352Z,96.82
2023-03-06T06:00:53.834Z,97.13
2023-03-06T06:01:56.174Z,97.03
2023-03-06T06:03:01.008Z,96.86
2023-03-06T06:04:02.435Z,96.44
2023-03-06T06:05:04.733Z,96.31
2023-03-06T06:06:10.953Z,96.78
2023-03-06T06:07:14.593Z,96.90
2023-03-06T06:08:16.181Z,97.12
2023-03-06T06:09:17.605Z,96.72
2023-03-06T06:10:19.037Z,96.54
2023-03-06T06:11:21.074Z,96.25
2023-03-06T06:12:22.683Z,96.51
2023-03-06T06:13:24.259Z,96.94
2023-03-06T06:14:26.155Z,96.67
2023-03-06T06:15:28.904Z,96.82
2023-03-06T06:16:30.392Z,97.39
2023-03-06T06:17:31.827Z,97.20
2023-03-06T06:18:33.254Z,97.24
2023-03-06T06:19:34.769Z,96.88
2023-03-06T06:20:37.372Z,97.37
2023-03-06T06:21:38.776Z,96.72
2023-03-06T06:22:40.232Z,96.06
2023-03-06T06:23:42.343Z,96.47
2023-03-06T06:24:43.716Z,96.19
2023-03-06T06:25:45.185Z,96.37
2023-03-06T06:26:49.358Z,95.54
2023-03-06T06:27:50.759Z,95.70
2023-03-06T06:28:52.192Z,95.42
2023-03-06T06:29:53.606Z,95.53
2023-03-06T06:30:55.177Z,95.66
2023-03-06T06:31:56.825Z,95.52
2023-03-06T06:32:58.486Z,96.12
2023-03-06T06:33:59.894Z,95.81
2023-03-06T06:35:01.349Z,96.14
2023-03-06T06:36:02.934Z,96.57
2023-03-06T06:37:04.549Z,96.23
2023-03-06T06:38:06.017Z,96.50
2023-03-06T06:39:08.039Z,96.60
2023-03-06T06:40:10.144Z,96.51
2023-03-06T06:41:38.944Z,96.40
2023-03-06T06:42:38.897Z,96.26
2023-03-06T06:43:41.187Z,95.91
2023-03-06T06:44:42.715Z,95.78
2023-03-06T06:45:44.219Z,96.02
2023-03-06T06:48:08.724Z,96.88
2023-03-06T06:49:10.402Z,96.19
2023-03-06T06:50:13.818Z,95.59
2023-03-06T06:51:16.946Z,95.73
2023-03-06T06:52:18.757Z,95.51
2023-03-06T06:53:20.288Z,95.34
2023-03-06T06:54:22.302Z,96.05
2023-03-06T06:55:23.757Z,95.91
2023-03-06T06:56:25.478Z,95.76
2023-03-06T06:57:26.988Z,95.93
2023-03-06T06:58:28.411Z,95.77
2023-03-06T06:59:29.858Z,95.87
2023-03-06T07:00:31.274Z,95.49
2023-03-06T07:01:32.878Z,95.87
2023-03-06T07:02:34.420Z,96.28
2023-03-06T07:03:36.067Z,96.25
2023-03-06T07:04:44.284Z,96.23
2023-03-06T07:05:55.837Z,96.46
2023-03-06T07:06:58.083Z,95.76
2023-03-06T07:07:59.524Z,96.19
2023-03-06T07:09:00.986Z,95.60
2023-03-06T07:10:08.148Z,94.80
2023-03-06T07:11:18.964Z,95.94
2023-03-06T07:12:20.431Z,95.79
2023-03-06T07:13:21.888Z,95.63
2023-03-06T07:14:23.432Z,95.46
2023-03-06T07:15:27.019Z,96.01
2023-03-06T07:16:28.483Z,95.71
2023-03-06T07:17:29.970Z,95.53
2023-03-06T07:18:31.494Z,95.28
2023-03-06T07:19:32.970Z,95.16
2023-03-06T07:20:34.778Z,94.75
2023-03-06T07:21:36.224Z,95.04
2023-03-06T07:22:50.428Z,94.89
2023-03-06T07:23:54.185Z,95.46
2023-03-06T07:24:55.739Z,94.86
2023-03-06T07:25:57.847Z,95.41
2023-03-06T07:26:59.248Z,95.92
2023-03-06T07:28:00.749Z,95.87
2023-03-06T07:29:03.566Z,95.67
2023-03-06T07:30:06.353Z,95.14
2023-03-06T07:31:09.936Z,95.83
2023-03-06T07:32:11.816Z,95.92
2023-03-06T07:33:13.963Z,95.28
2023-03-06T07:34:15.479Z,95.33
2023-03-06T07:35:20.487Z,95.68
2023-03-06T07:36:23.915Z,95.64
2023-03-06T07:37:25.358Z,95.97
2023-03-06T07:38:26.858Z,95.49
2023-03-06T07:39:30.026Z,96.30
2023-03-06T07:40:31.672Z,96.04
2023-03-06T07:41:33.406Z,96.02
2023-03-06T07:42:35.427Z,94.96
2023-03-06T07:43:36.914Z,94.37
2023-03-06T07:44:38.340Z,94.13
2023-03-06T07:45:39.827Z,94.72
2023-03-06T07:46:41.437Z,95.39
2023-03-06T07:47:42.979Z,94.56
2023-03-06T07:48:44.700Z,95.02
2023-03-06T07:49:46.254Z,94.99
2023-03-06T07:50:55.638Z,95.02
2023-03-06T07:51:58.318Z,95.72
2023-03-06T07:52:59.775Z,95.60
2023-03-06T07:54:01.244Z,95.06
2023-03-06T07:55:02.857Z,94.73
2023-03-06T07:56:08.953Z,94.80
2023-03-06T07:57:10.512Z,94.06
2023-03-06T07:58:11.936Z,94.01
2023-03-06T07:59:13.409Z,94.75
2023-03-06T08:00:15.650Z,94.54
2023-03-06T08:01:19.814Z,93.61
2023-03-06T08:02:21.287Z,93.57
2023-03-06T08:03:22.657Z,93.56
2023-03-06T08:04:24.115Z,93.92
2023-03-06T08:05:25.517Z,91.77
2023-03-06T08:06:27.841Z,92.03
2023-03-06T08:07:30.443Z,93.37
2023-03-06T08:08:33.673Z,95.10
2023-03-06T08:09:35.834Z,93.95
2023-03-06T08:10:37.408Z,93.61
2023-03-06T08:11:38.870Z,93.30
2023-03-06T08:12:40.309Z,93.38
2023-03-06T08:13:41.908Z,93.58
2023-03-06T08:14:43.387Z,93.26
2023-03-06T08:15:48.645Z,93.36
2023-03-06T08:16:51.177Z,93.12
2023-03-06T08:17:52.938Z,93.84
2023-03-06T08:18:54.729Z,94.47
2023-03-06T08:19:56.211Z,94.31
2023-03-06T08:21:09.051Z,93.67
2023-03-06T08:22:11.177Z,93.42
2023-03-06T08:23:12.464Z,92.27
2023-03-06T08:24:16.572Z,91.31
2023-03-06T08:25:18.107Z,90.18
2023-03-06T08:26:25.473Z,90.06
2023-03-06T08:27:26.921Z,90.47
2023-03-06T08:28:31.427Z,91.14
2023-03-06T08:29:32.918Z,91.54
2023-03-06T08:30:34.362Z,91.67
2023-03-06T08:31:41.242Z,90.68
2023-03-06T08:32:42.721Z,90.23
2023-03-06T08:33:44.181Z,91.46
2023-03-06T08:34:45.701Z,91.85
2023-03-06T08:35:47.405Z,91.12
2023-03-06T08:36:48.874Z,91.79
2023-03-06T08:37:50.280Z,92.73
2023-03-06T08:38:52.021Z,93.01
2023-03-06T08:39:53.449Z,94.17
2023-03-06T08:40:54.879Z,94.09
2023-03-06T08:41:56.295Z,93.23
2023-03-06T08:42:57.735Z,92.55
2023-03-06T08:43:59.277Z,90.95
2023-03-06T08:45:00.768Z,89.85
2023-03-06T08:46:02.497Z,90.14
2023-03-06T08:47:04.934Z,89.66
2023-03-06T08:48:06.488Z,90.11
2023-03-06T08:49:08.011Z,90.50
2023-03-06T08:50:10.306Z,90.10
2023-03-06T08:51:11.732Z,90.93
2023-03-06T08:52:13.151Z,91.31
2023-03-06T08:53:15.022Z,90.79
2023-03-06T08:54:16.485Z,90.15
2023-03-06T08:55:17.931Z,89.62
2023-03-06T08:56:31.123Z,90.43
2023-03-06T08:57:32.542Z,91.07
2023-03-06T08:58:34.048Z,90.07
2023-03-06T08:59:36.752Z,91.06
2023-03-06T09:00:38.371Z,92.73
2023-03-06T09:01:40.606Z,92.15
2023-03-06T09:02:42.093Z,92.61
2023-03-06T09:03:43.850Z,91.39
2023-03-06T09:04:45.315Z,90.92
2023-03-06T09:05:47.135Z,90.33
2023-03-06T09:06:48.592Z,90.94
2023-03-06T09:07:50.042Z,91.75
2023-03-06T09:08:52.802Z,92.19
2023-03-06T09:09:58.320Z,92.66
2023-03-06T09:10:59.863Z,92.79
2023-03-06T09:12:01.317Z,92.45
2023-03-06T09:13:02.770Z,92.15
2023-03-06T09:14:05.478Z,92.21
2023-03-06T09:15:07.606Z,92.60
2023-03-06T09:16:09.479Z,91.68
2023-03-06T09:17:10.984Z,91.70
2023-03-06T09:18:12.410Z,92.77
2023-03-06T09:19:13.824Z,93.45
2023-03-06T09:20:15.666Z,93.66
2023-03-06T09:21:17.116Z,94.23
2023-03-06T09:22:18.554Z,93.28
2023-03-06T09:23:19.949Z,93.15
2023-03-06T09:24:21.645Z,92.50
2023-03-06T09:25:23.296Z,93.23
2023-03-06T09:26:35.948Z,94.76
2023-03-06T09:27:45.371Z,93.06
2023-03-06T09:28:46.859Z,93.45
2023-03-06T09:29:48.333Z,93.09
2023-03-06T09:30:50.231Z,92.71
2023-03-06T09:31:51.737Z,92.64
2023-03-06T09:32:53.150Z,92.70
2023-03-06T09:33:54.571Z,92.10
2023-03-06T09:34:56.085Z,92.06
2023-03-06T09:35:58.456Z,92.63
2023-03-06T09:37:02.125Z,93.54
2023-03-06T09:38:03.544Z,92.29
2023-03-06T09:39:05.041Z,93.09
2023-03-06T09:40:07.185Z,93.39
2023-03-06T09:41:15.526Z,94.19
2023-03-06T09:42:21.350Z,94.37
2023-03-06T09:43:39.162Z,94.48
2023-03-06T09:44:43.219Z,92.82
2023-03-06T09:45:45.565Z,92.75
2023-03-06T09:47:18.718Z,93.86
2023-03-06T09:48:27.906Z,94.28
2023-03-06T09:49:47.637Z,94.42
2023-03-06T09:51:01.358Z,95.26
2023-03-06T09:52:23.278Z,94.98
2023-03-06T09:53:56.533Z,93.12
2023-03-06T09:55:08.901Z,93.53
2023-03-06T09:56:16.676Z,94.04
2023-03-06T09:57:31.667Z,93.65
2023-03-06T09:58:41.338Z,93.89
2023-03-06T09:59:47.661Z,94.06
2023-03-06T10:00:58.041Z,93.85
2023-03-06T10:02:24.723Z,94.76
2023-03-06T10:04:03.539Z,92.62
2023-03-06T10:05:12.682Z,92.43
2023-03-06T10:06:30.036Z,93.12
2023-03-06T10:08:00.670Z,93.02
2023-03-06T10:09:25.896Z,92.33
2023-03-06T10:10:52.527Z,92.83
2023-03-06T10:12:03.676Z,93.06
2023-03-06T10:13:37.841Z,94.35
2023-03-06T10:14:53.931Z,94.65
2023-03-06T10:16:06.340Z,93.56
2023-03-06T10:17:17.712Z,92.27
2023-03-06T10:18:19.149Z,93.63
2023-03-06T10:19:21.737Z,94.31
2023-03-06T10:20:28.925Z,94.24
2023-03-06T10:21:48.736Z,92.64
2023-03-06T10:23:27.678Z,93.28
2023-03-06T10:24:57.120Z,94.78
2023-03-06T10:26:07.149Z,93.21
2023-03-06T10:27:18.341Z,92.19
2023-03-06T10:28:30.574Z,92.85
2023-03-06T10:30:02.611Z,94.00
2023-03-06T10:31:16.705Z,94.96
2023-03-06T10:32:24.042Z,93.77
2023-03-06T10:34:03.930Z,93.46
2023-03-06T10:35:15.545Z,94.24
2023-03-06T10:36:18.532Z,92.90
2023-03-06T10:37:22.790Z,94.88
2023-03-06T10:38:38.185Z,95.08
2023-03-06T10:39:39.780Z,92.60
2023-03-06T10:41:10.583Z,91.93
2023-03-06T10:42:12.181Z,90.90
2023-03-06T10:43:13.817Z,91.43
2023-03-06T10:44:15.142Z,90.87
2023-03-06T10:45:17.247Z,92.20
2023-03-06T10:46:26.911Z,92.96
2023-03-06T10:47:36.798Z,91.80
2023-03-06T10:48:41.974Z,91.88
2023-03-06T10:49:57.795Z,88.82
2023-03-06T10:51:19.229Z,89.45
2023-03-06T10:52:22.562Z,89.85
2023-03-06T10:53:28.897Z,88.96
2023-03-06T10:54:39.515Z,92.11
2023-03-06T10:55:46.372Z,91.85
2023-03-06T10:56:48.089Z,89.51
2023-03-06T10:57:49.567Z,88.99
2023-03-06T10:59:06.420Z,90.17
2023-03-06T11:00:31.285Z,89.90
2023-03-06T11:01:33.314Z,89.29
2023-03-06T11:02:38.363Z,89.23
2023-03-06T11:03:39.863Z,88.50
2023-03-06T11:04:46.416Z,87.79
2023-03-06T11:06:10.018Z,89.92
2023-03-06T11:07:19.263Z,90.36
2023-03-06T11:08:22.484Z,89.85
2023-03-06T11:09:26.077Z,89.25
2023-03-06T11:10:29.654Z,87.23
2023-03-06T11:11:37.502Z,86.43
2023-03-06T11:12:41.324Z,85.46
2023-03-06T11:13:44.453Z,85.03
2023-03-06T11:14:45.876Z,88.82
2023-03-06T11:16:18.597Z,87.31
2023-03-06T11:17:32.093Z,90.77
2023-03-06T11:18:42.695Z,91.94
2023-03-06T11:19:44.121Z,90.21
2023-03-06T11:20:55.371Z,87.79
2023-03-06T11:22:06.464Z,87.19
2023-03-06T11:23:38.336Z,88.15
2023-03-06T11:24:44.172Z,87.17
2023-03-06T11:26:01.210Z,85.71
2023-03-06T11:27:17.075Z,85.68
2023-03-06T11:29:00.226Z,84.71
2023-03-06T11:30:06.213Z,85.60
2023-03-06T11:31:16.429Z,87.91
2023-03-06T11:32:24.682Z,85.32
2023-03-06T11:33:58.439Z,86.42
2023-03-06T11:35:05.722Z,85.52
2023-03-06T11:36:21.327Z,87.10
2023-03-06T11:37:31.946Z,88.93
2023-03-06T11:38:43.206Z,89.71
2023-03-06T11:39:53.238Z,86.21
2023-03-06T11:40:59.583Z,87.00
2023-03-06T11:42:25.876Z,84.74
2023-03-06T11:43:41.078Z,85.41
2023-03-06T11:45:05.942Z,85.26
2023-03-06T11:46:18.573Z,87.00
2023-03-06T11:47:25.779Z,86.13
2023-03-06T11:48:53.288Z,87.34
2023-03-06T11:50:12.884Z,86.00
2023-03-06T11:51:19.510Z,89.29
2023-03-06T11:52:43.500Z,90.15
2023-03-06T11:53:45.110Z,88.21
2023-03-06T11:54:54.201Z,87.93
2023-03-06T11:56:22.783Z,86.19
2023-03-06T11:57:40.964Z,83.59
2023-03-06T11:58:45.681Z,85.79
2023-03-06T12:00:11.343Z,85.58
2023-03-06T12:01:18.700Z,85.06
2023-03-06T12:02:35.435Z,87.71
2023-03-06T12:04:14.177Z,87.75
2023-03-06T12:05:34.417Z,84.25
2023-03-06T12:06:51.742Z,80.84
2023-03-06T12:08:17.373Z,84.01
2023-03-06T12:09:29.035Z,81.84
2023-03-06T12:10:51.810Z,80.75
2023-03-06T12:12:18.741Z,81.03
2023-03-06T12:13:41.305Z,81.73
2023-03-06T12:15:08.896Z,84.60
2023-03-06T12:16:25.373Z,81.98
2023-03-06T12:17:38.862Z,82.02
2023-03-06T12:19:07.180Z,84.13
2023-03-06T12:20:42.100Z,81.92
2023-03-06T12:22:22.096Z,84.74
2023-03-06T12:23:41.500Z,80.41
2023-03-06T12:24:52.090Z,84.60
2023-03-06T12:26:10.607Z,85.10
2023-03-06T12:27:31.891Z,82.83
2023-03-06T12:28:40.645Z,80.39
2023-03-06T12:29:57.011Z,83.65
2023-03-06T12:31:15.761Z,82.31
2023-03-06T12:32:46.517Z,80.60
2023-03-06T12:34:13.372Z,82.35
2023-03-06T12:35:14.769Z,83.98
2023-03-06T12:36:29.730Z,82.80
2023-03-06T12:38:30.235Z,83.56
2023-03-06T12:39:37.622Z,87.73
2023-03-06T12:40:39.274Z,87.29
2023-03-06T12:42:08.888Z,81.27
2023-03-06T12:43:34.840Z,81.95
2023-03-06T12:45:10.217Z,81.17
2023-03-06T12:46:14.113Z,82.02
2023-03-06T12:47:20.140Z,81.76
2023-03-06T12:48:27.051Z,83.35
2023-03-06T12:49:33.030Z,81.33
2023-03-06T12:50:38.546Z,80.12
2023-03-06T12:51:40.761Z,83.99
2023-03-06T12:52:42.614Z,83.11
2023-03-06T12:53:45.272Z,85.52
2023-03-06T12:54:47.078Z,80.42
2023-03-06T12:55:50.537Z,77.29
2023-03-06T12:56:54.305Z,82.71
2023-03-06T12:57:55.762Z,83.72
2023-03-06T12:59:02.380Z,79.40
2023-03-06T13:00:04.333Z,79.88
2023-03-06T13:01:11.697Z,77.53
2023-03-06T13:02:28.513Z,79.11
2023-03-06T13:03:44.753Z,82.00
2023-03-06T13:05:23.490Z,82.18
2023-03-06T13:06:50.134Z,77.27
2023-03-06T13:08:16.721Z,78.72
2023-03-06T13:09:39.628Z,83.62
2023-03-06T13:10:43.486Z,80.37
2023-03-06T13:11:50.726Z,78.27
2023-03-06T13:12:58.129Z,79.90
2023-03-06T13:13:59.681Z,83.27
2023-03-06T13:15:18.794Z,82.99
2023-03-06T13:16:34.376Z,79.31
2023-03-06T13:17:38.079Z,78.79
2023-03-06T13:18:50.794Z,78.46
2023-03-06T13:20:14.137Z,78.77
2023-03-06T13:21:43.894Z,80.14
2023-03-06T13:22:46.805Z,79.06
2023-03-06T13:23:52.872Z,77.59
2023-03-06T13:25:19.271Z,79.62
2023-03-06T13:26:24.052Z,79.32
2023-03-06T13:27:54.724Z,80.32
2023-03-06T13:28:57.919Z,80.68
2023-03-06T13:30:06.447Z,80.19
2023-03-06T13:31:18.193Z,78.72
2023-03-06T13:32:37.029Z,80.40
2023-03-06T13:33:38.638Z,80.70
2023-03-06T13:34:48.373Z,83.99
2023-03-06T13:35:55.723Z,80.07
2023-03-06T13:37:25.032Z,78.01
2023-03-06T13:38:34.057Z,77.87
2023-03-06T13:39:55.428Z,80.01
2023-03-06T13:41:24.909Z,81.63
2023-03-06T13:42:31.770Z,80.24
2023-03-06T13:43:41.388Z,77.71
2023-03-06T13:44:44.726Z,76.93
2023-03-06T13:45:47.921Z,79.43
2023-03-06T13:47:06.231Z,77.70
2023-03-06T13:48:43.239Z,81.75
2023-03-06T13:49:47.054Z,79.86
2023-03-06T13:50:49.438Z,78.90
2023-03-06T13:51:53.825Z,81.23
2023-03-06T13:53:10.651Z,79.73
2023-03-06T13:54:20.850Z,76.45
2023-03-06T13:55:38.104Z,78.46
2023-03-06T13:56:52.311Z,77.41
2023-03-06T13:58:28.040Z,76.31
2023-03-06T14:00:08.238Z,80.40
2023-03-06T14:01:41.994Z,76.91
2023-03-06T14:03:11.466Z,80.39
2023-03-06T14:04:34.318Z,76.95
2023-03-06T14:05:50.155Z,80.61
2023-03-06T14:07:06.474Z,80.32
2023-03-06T14:08:16.682Z,76.72
2023-03-06T14:09:26.438Z,78.23